Time;durP1;ratioP1;P1;durP2;ratioP2;P2;SDS_P1;SDS_P2;PMS_P1;PMS_P2;Temp;Humidity;BMP_temperature;BMP_pressure;BME280_temperature;BME280_humidity;BME280_pressure;Samples;Min_cycle;Max_cycle;Signal;HPM_P1;HPM_P2
2022/03/16 00:00:12;;;;;;;10.93;7.20;;;8.00;99.90;;;;;;6281311;22;20069;-91
2022/03/16 00:02:45;;;;;;;11.88;7.10;;;8.00;99.90;;;;;;6281363;22;20024;-91
2022/03/16 00:05:13;;;;;;;14.48;7.53;;;8.00;99.90;;;;;;6256027;22;20019;-91
2022/03/16 00:07:40;;;;;;;12.85;7.63;;;8.00;99.90;;;;;;6308617;22;20022;-90
2022/03/16 00:10:09;;;;;;;11.45;6.80;;;8.00;99.90;;;;;;6281504;22;20026;-90
2022/03/16 00:12:37;;;;;;;11.20;7.05;;;7.90;99.90;;;;;;6281444;22;20019;-90
2022/03/16 00:15:05;;;;;;;10.10;6.82;;;7.90;99.90;;;;;;6307578;22;20019;-90
2022/03/16 00:17:33;;;;;;;10.63;6.88;;;7.90;99.90;;;;;;6255995;22;20439;-90
2022/03/16 00:20:00;;;;;;;10.00;6.15;;;7.90;99.90;;;;;;6256343;22;20015;-91
2022/03/16 00:22:27;;;;;;;11.60;6.05;;;7.90;99.90;;;;;;6280849;22;20051;-91
2022/03/16 00:24:54;;;;;;;10.52;6.40;;;7.90;99.90;;;;;;6282072;22;20070;-90
2022/03/16 00:27:21;;;;;;;12.15;7.85;;;7.80;99.90;;;;;;6281606;22;20106;-90
2022/03/16 00:29:49;;;;;;;14.77;8.13;;;7.80;99.90;;;;;;6257657;22;20049;-91
2022/03/16 00:32:15;;;;;;;15.73;8.45;;;7.80;99.90;;;;;;6281089;22;20015;-91
2022/03/16 00:34:42;;;;;;;13.07;6.90;;;7.80;99.90;;;;;;6281119;22;20069;-91
2022/03/16 00:37:09;;;;;;;9.88;6.45;;;7.80;99.90;;;;;;6255963;22;20094;-91
2022/03/16 00:39:37;;;;;;;10.82;6.47;;;7.80;99.90;;;;;;6281643;22;20019;-91
2022/03/16 00:42:04;;;;;;;14.07;7.75;;;7.80;99.90;;;;;;6280853;22;20473;-91
2022/03/16 00:44:35;;;;;;;13.52;7.07;;;7.70;99.90;;;;;;6256244;22;20027;-91
2022/03/16 00:47:06;;;;;;;10.55;6.97;;;7.70;99.90;;;;;;6281218;22;20046;-91
2022/03/16 00:49:33;;;;;;;12.07;7.28;;;7.70;99.90;;;;;;6282167;22;20029;-90
2022/03/16 00:52:00;;;;;;;11.18;7.25;;;7.70;99.90;;;;;;6306714;22;20404;-91
2022/03/16 00:54:31;;;;;;;12.93;7.93;;;7.70;99.90;;;;;;6281567;22;20349;-91
2022/03/16 00:57:01;;;;;;;10.98;7.28;;;7.70;99.90;;;;;;6280885;22;20069;-91
2022/03/16 00:59:28;;;;;;;10.73;6.72;;;7.70;99.90;;;;;;6285193;22;20046;-91
2022/03/16 01:01:54;;;;;;;13.95;8.02;;;7.60;99.90;;;;;;6287544;22;20030;-90
2022/03/16 01:04:22;;;;;;;12.75;7.65;;;7.70;99.90;;;;;;6256234;22;20015;-91
2022/03/16 01:06:49;;;;;;;10.00;6.80;;;7.60;99.90;;;;;;6280742;22;20026;-91
2022/03/16 01:09:18;;;;;;;11.30;8.13;;;7.60;99.90;;;;;;6281541;22;20043;-91
2022/03/16 01:11:45;;;;;;;12.85;8.57;;;7.60;99.90;;;;;;6280629;22;20015;-91
2022/03/16 01:14:12;;;;;;;12.90;7.25;;;7.60;99.90;;;;;;6281437;22;20062;-91
2022/03/16 01:16:40;;;;;;;13.02;7.15;;;7.60;99.90;;;;;;6280633;22;20044;-92
2022/03/16 01:19:07;;;;;;;12.40;6.80;;;7.60;99.90;;;;;;6280846;22;20489;-91
2022/03/16 01:21:35;;;;;;;10.68;7.00;;;7.60;99.90;;;;;;6280986;22;20026;-91
2022/03/16 01:24:03;;;;;;;12.57;7.15;;;7.60;99.90;;;;;;6280572;22;20019;-91
2022/03/16 01:26:30;;;;;;;10.93;6.95;;;7.60;99.90;;;;;;6280678;22;20023;-91
2022/03/16 01:28:56;;;;;;;10.75;7.43;;;7.50;99.90;;;;;;6280666;22;20512;-91
2022/03/16 01:31:23;;;;;;;11.60;6.65;;;7.50;99.90;;;;;;6280475;22;20015;-90
2022/03/16 01:33:50;;;;;;;12.40;7.32;;;7.50;99.90;;;;;;6280876;22;20026;-91
2022/03/16 01:36:17;;;;;;;11.88;7.65;;;7.50;99.90;;;;;;6281055;22;20019;-90
2022/03/16 01:38:45;;;;;;;13.13;7.97;;;7.50;99.90;;;;;;6280124;22;20015;-91
2022/03/16 01:41:12;;;;;;;11.63;7.82;;;7.50;99.90;;;;;;6280542;22;20030;-91
2022/03/16 01:43:40;;;;;;;11.45;8.02;;;7.50;99.90;;;;;;6306266;22;20054;-92
2022/03/16 01:46:07;;;;;;;12.52;7.05;;;7.40;99.90;;;;;;6280816;22;20023;-93
2022/03/16 01:48:37;;;;;;;11.65;7.22;;;7.40;99.90;;;;;;6280573;22;20023;-90
2022/03/16 01:51:04;;;;;;;14.48;7.47;;;7.40;99.90;;;;;;6280340;22;20102;-90
2022/03/16 01:53:31;;;;;;;13.13;7.75;;;7.40;99.90;;;;;;6280113;22;20106;-91
2022/03/16 01:55:58;;;;;;;12.02;8.32;;;7.40;99.90;;;;;;6255361;22;20046;-91
2022/03/16 01:58:26;;;;;;;13.35;7.57;;;7.40;99.90;;;;;;6255117;22;20065;-91
2022/03/16 02:00:57;;;;;;;12.98;7.90;;;7.30;99.90;;;;;;6280330;22;20023;-92
2022/03/16 02:03:25;;;;;;;14.95;8.65;;;7.30;99.90;;;;;;6280071;22;20043;-91
2022/03/16 02:05:52;;;;;;;14.65;8.10;;;7.30;99.90;;;;;;6280342;22;20125;-90
2022/03/16 02:08:19;;;;;;;14.85;8.88;;;7.30;99.90;;;;;;6281680;22;20035;-91
2022/03/16 02:10:46;;;;;;;14.35;9.05;;;7.30;99.90;;;;;;6281004;22;20461;-91
2022/03/16 02:13:13;;;;;;;15.60;8.25;;;7.30;99.90;;;;;;6279976;22;20012;-91
2022/03/16 02:15:40;;;;;;;15.30;8.77;;;7.30;99.90;;;;;;6280231;22;20011;-91
2022/03/16 02:18:07;;;;;;;12.02;8.32;;;7.30;99.90;;;;;;6280158;22;20477;-91
2022/03/16 02:20:34;;;;;;;13.10;8.18;;;7.30;99.90;;;;;;6280377;22;20182;-92
2022/03/16 02:23:04;;;;;;;17.13;8.35;;;7.20;99.90;;;;;;6280189;22;20383;-91
2022/03/16 02:25:34;;;;;;;16.83;8.98;;;7.20;99.90;;;;;;6254912;22;20442;-92
2022/03/16 02:28:01;;;;;;;14.63;8.65;;;7.20;99.90;;;;;;6281618;22;20098;-91
2022/03/16 02:30:29;;;;;;;12.90;9.10;;;7.20;99.90;;;;;;6280791;22;20031;-90
2022/03/16 02:32:56;;;;;;;15.23;8.80;;;7.20;99.90;;;;;;6279964;22;20015;-91
2022/03/16 02:35:23;;;;;;;13.48;8.38;;;7.20;99.90;;;;;;6281963;22;20442;-91
2022/03/16 02:37:50;;;;;;;13.32;8.88;;;7.20;99.90;;;;;;6282614;22;20026;-90
2022/03/16 02:40:20;;;;;;;14.55;8.50;;;7.20;99.90;;;;;;6282555;22;20019;-91
2022/03/16 02:42:48;;;;;;;15.32;8.98;;;7.20;99.90;;;;;;6309744;22;20097;-91
2022/03/16 02:45:15;;;;;;;15.27;8.50;;;7.20;99.90;;;;;;6282379;22;20054;-91
2022/03/16 02:47:42;;;;;;;12.95;8.75;;;7.10;99.90;;;;;;6309640;22;20019;-90
2022/03/16 02:50:12;;;;;;;18.00;9.73;;;7.10;99.90;;;;;;6308473;22;20019;-90
2022/03/16 02:52:39;;;;;;;16.10;10.10;;;7.10;99.90;;;;;;6282259;22;20101;-90
2022/03/16 02:55:07;;;;;;;15.48;9.43;;;7.10;99.90;;;;;;6256681;22;20065;-91
2022/03/16 02:57:34;;;;;;;16.08;9.13;;;7.10;99.90;;;;;;6256768;22;20460;-89
2022/03/16 03:00:04;;;;;;;16.35;9.23;;;7.00;99.90;;;;;;6282039;22;20015;-90
2022/03/16 03:02:30;;;;;;;14.48;9.20;;;7.00;99.90;;;;;;6281847;22;20477;-91
2022/03/16 03:04:57;;;;;;;16.52;9.98;;;7.00;99.90;;;;;;6282267;22;20085;-90
2022/03/16 03:07:24;;;;;;;13.43;8.98;;;7.00;99.90;;;;;;6282205;22;20025;-91
2022/03/16 03:09:52;;;;;;;16.48;10.35;;;7.00;99.90;;;;;;6309486;22;20019;-91
2022/03/16 03:12:19;;;;;;;17.67;9.98;;;7.00;99.90;;;;;;6282696;22;20023;-90
2022/03/16 03:14:46;;;;;;;22.27;10.05;;;7.00;99.90;;;;;;6282846;22;20027;-91
2022/03/16 03:17:13;;;;;;;14.35;9.32;;;7.00;99.90;;;;;;6256429;22;20020;-90
2022/03/16 03:19:42;;;;;;;16.23;10.40;;;7.00;99.90;;;;;;6283149;22;20019;-91
2022/03/16 03:22:09;;;;;;;14.63;9.90;;;7.00;99.90;;;;;;6256841;22;20023;-90
2022/03/16 03:24:36;;;;;;;15.63;10.82;;;7.00;99.90;;;;;;6283223;22;20047;-90
2022/03/16 03:27:03;;;;;;;16.77;9.98;;;6.90;99.90;;;;;;6283421;22;20011;-90
2022/03/16 03:29:30;;;;;;;18.63;10.65;;;6.90;99.90;;;;;;6282132;22;20026;-90
2022/03/16 03:31:57;;;;;;;15.68;10.55;;;6.90;99.90;;;;;;6256298;22;20021;-91
2022/03/16 03:34:24;;;;;;;13.60;10.20;;;6.90;99.90;;;;;;6281729;22;20019;-90
2022/03/16 03:36:53;;;;;;;18.27;10.95;;;6.90;99.90;;;;;;6256438;22;20463;-90
2022/03/16 03:39:20;;;;;;;20.85;10.52;;;6.90;99.90;;;;;;6308799;22;20161;-90
2022/03/16 03:41:47;;;;;;;17.98;10.98;;;6.80;99.90;;;;;;6256200;22;20342;-90
2022/03/16 03:44:13;;;;;;;17.08;10.45;;;6.80;99.90;;;;;;6256282;22;20051;-90
2022/03/16 03:46:40;;;;;;;18.40;10.15;;;6.80;99.90;;;;;;6255799;22;20030;-90
2022/03/16 03:49:07;;;;;;;18.23;11.02;;;6.80;99.90;;;;;;6281516;22;20102;-92
2022/03/16 03:51:35;;;;;;;18.58;11.48;;;6.80;99.90;;;;;;6281274;22;20043;-91
2022/03/16 03:54:02;;;;;;;20.73;11.32;;;6.80;99.90;;;;;;6282341;22;20023;-90
2022/03/16 03:56:29;;;;;;;17.25;11.60;;;6.80;99.90;;;;;;6281775;22;20023;-91
2022/03/16 03:58:56;;;;;;;19.95;10.90;;;6.80;99.90;;;;;;6281676;22;20039;-90
2022/03/16 04:01:23;;;;;;;17.63;11.05;;;6.70;99.90;;;;;;6308653;22;20025;-90
2022/03/16 04:03:50;;;;;;;16.25;10.73;;;6.70;99.90;;;;;;6256525;22;20033;-91
2022/03/16 04:06:17;;;;;;;20.60;12.52;;;6.70;99.90;;;;;;6255975;22;20025;-91
2022/03/16 04:08:44;;;;;;;18.13;11.38;;;6.70;99.90;;;;;;6281646;22;20023;-91
2022/03/16 04:11:12;;;;;;;19.15;12.23;;;6.70;99.90;;;;;;6282339;22;20015;-90
2022/03/16 04:13:39;;;;;;;17.25;10.25;;;6.70;99.90;;;;;;6308632;22;20073;-90
2022/03/16 04:16:06;;;;;;;18.65;11.00;;;6.60;99.90;;;;;;6256961;22;20417;-89
2022/03/16 04:18:33;;;;;;;22.17;12.13;;;6.60;99.90;;;;;;6312489;22;20045;-90
2022/03/16 04:21:00;;;;;;;20.48;11.57;;;6.60;99.90;;;;;;6290288;22;20043;-91
2022/03/16 04:23:26;;;;;;;19.70;11.13;;;6.60;99.90;;;;;;6313890;22;20035;-91
2022/03/16 04:25:53;;;;;;;22.00;12.68;;;6.60;99.90;;;;;;6281740;22;20023;-90
2022/03/16 04:28:20;;;;;;;22.02;13.43;;;6.60;99.90;;;;;;6281412;22;20023;-92
2022/03/16 04:30:47;;;;;;;19.23;10.52;;;6.60;99.90;;;;;;6281176;22;20030;-90
2022/03/16 04:33:14;;;;;;;19.40;10.65;;;6.60;99.90;;;;;;6281117;22;20533;-90
2022/03/16 04:35:41;;;;;;;22.73;11.80;;;6.60;99.90;;;;;;6281848;22;20031;-90
2022/03/16 04:38:08;;;;;;;20.52;12.02;;;6.60;99.90;;;;;;6281842;22;20034;-90
2022/03/16 04:40:36;;;;;;;23.50;12.30;;;6.50;99.90;;;;;;6255883;22;20026;-91
2022/03/16 04:43:03;;;;;;;23.95;12.40;;;6.60;99.90;;;;;;6280876;22;20026;-90
2022/03/16 04:45:30;;;;;;;24.75;12.73;;;6.60;99.90;;;;;;6280901;22;20053;-90
2022/03/16 04:47:57;;;;;;;21.40;12.23;;;6.50;99.90;;;;;;6280985;22;20065;-91
2022/03/16 04:50:30;;;;;;;18.45;10.07;;;6.50;99.90;;;;;;6280908;22;20023;-90
2022/03/16 04:52:57;;;;;;;20.20;11.52;;;6.60;99.90;;;;;;6281287;22;20024;-91
2022/03/16 04:55:24;;;;;;;20.63;12.15;;;6.50;99.90;;;;;;6255784;22;20054;-90
2022/03/16 04:57:57;;;;;;;40.00;17.73;;;6.50;99.90;;;;;;6256341;22;20106;-90
2022/03/16 05:00:24;;;;;;;24.05;12.88;;;6.50;99.90;;;;;;6280932;22;20019;-91
2022/03/16 05:02:51;;;;;;;25.48;12.13;;;6.40;99.90;;;;;;6280811;22;20019;-90
2022/03/16 05:05:19;;;;;;;27.17;14.30;;;6.40;99.90;;;;;;6281291;22;20023;-91
2022/03/16 05:07:45;;;;;;;23.90;12.27;;;6.40;99.90;;;;;;6255715;22;20110;-90
2022/03/16 05:10:13;;;;;;;22.02;11.63;;;6.40;99.90;;;;;;6281151;22;20065;-90
2022/03/16 05:12:41;;;;;;;35.83;17.63;;;6.40;99.90;;;;;;6255175;22;20011;-91
2022/03/16 05:15:12;;;;;;;30.35;16.02;;;6.40;99.90;;;;;;6255800;22;20018;-93
2022/03/16 05:17:49;;;;;;;25.08;12.80;;;6.40;99.90;;;;;;6282057;22;20458;-93
2022/03/16 05:20:16;;;;;;;24.75;12.60;;;6.40;99.90;;;;;;6255807;22;20043;-91
2022/03/16 05:22:49;;;;;;;27.63;14.13;;;6.50;99.90;;;;;;6255528;22;20109;-91
2022/03/16 05:25:27;;;;;;;37.53;19.05;;;6.40;99.90;;;;;;6255499;22;20098;-90
2022/03/16 05:27:54;;;;;;;24.38;13.68;;;6.40;99.90;;;;;;6255667;22;20024;-90
2022/03/16 05:30:26;;;;;;;24.60;13.50;;;6.40;99.90;;;;;;6281519;22;20465;-90
2022/03/16 05:32:56;;;;;;;24.98;13.80;;;6.40;99.90;;;;;;6280371;22;20469;-90
2022/03/16 05:35:23;;;;;;;35.63;17.25;;;6.40;99.90;;;;;;6281394;22;20019;-90
2022/03/16 05:37:51;;;;;;;26.75;14.10;;;6.30;99.90;;;;;;6281610;22;20018;-89
2022/03/16 05:40:18;;;;;;;37.25;18.75;;;6.30;99.90;;;;;;6282020;22;20015;-90
2022/03/16 05:42:45;;;;;;;30.55;15.70;;;6.30;99.90;;;;;;6255819;22;20106;-90
2022/03/16 05:45:12;;;;;;;40.42;18.38;;;6.30;99.90;;;;;;6281436;22;20020;-91
2022/03/16 05:47:43;;;;;;;29.00;14.45;;;6.30;99.90;;;;;;6281309;22;20413;-93
2022/03/16 05:50:11;;;;;;;33.30;16.95;;;6.30;99.90;;;;;;6281716;22;20027;-92
2022/03/16 05:52:38;;;;;;;41.63;18.08;;;6.40;99.90;;;;;;6280553;22;20023;-90
2022/03/16 05:55:08;;;;;;;39.20;20.00;;;6.30;99.90;;;;;;6280869;22;20035;-92
2022/03/16 05:57:39;;;;;;;35.85;17.90;;;6.30;99.90;;;;;;6280415;22;20022;-91
2022/03/16 06:00:08;;;;;;;29.23;14.95;;;6.30;99.90;;;;;;6250560;22;20031;-92
2022/03/16 06:02:35;;;;;;;29.75;14.88;;;6.30;99.90;;;;;;6252901;22;20054;-91
2022/03/16 06:05:03;;;;;;;35.40;18.35;;;6.30;99.90;;;;;;6308222;22;20095;-91
2022/03/16 06:07:30;;;;;;;33.70;17.98;;;6.30;99.90;;;;;;6255629;22;20481;-91
2022/03/16 06:09:57;;;;;;;29.80;15.18;;;6.30;99.90;;;;;;6282390;22;20094;-91
2022/03/16 06:12:25;;;;;;;40.00;18.23;;;6.30;99.90;;;;;;6257474;22;20015;-91
2022/03/16 06:14:53;;;;;;;33.08;16.38;;;6.30;99.90;;;;;;6282786;22;20038;-91
2022/03/16 06:17:20;;;;;;;30.70;16.63;;;6.30;99.90;;;;;;6282892;22;20019;-92
2022/03/16 06:19:47;;;;;;;33.05;16.92;;;6.30;99.90;;;;;;6283178;22;20023;-91
2022/03/16 06:22:14;;;;;;;34.38;17.48;;;6.30;99.90;;;;;;6282731;22;20019;-92
2022/03/16 06:24:42;;;;;;;29.90;13.20;;;6.30;99.90;;;;;;6283093;22;20505;-91
2022/03/16 06:27:08;;;;;;;26.38;14.60;;;6.20;99.90;;;;;;6257844;22;20015;-90
2022/03/16 06:29:35;;;;;;;26.70;13.43;;;6.30;99.90;;;;;;6282763;22;20046;-91
2022/03/16 06:32:03;;;;;;;36.83;16.88;;;6.30;99.90;;;;;;6283094;22;20007;-91
2022/03/16 06:34:30;;;;;;;32.47;15.13;;;6.20;99.90;;;;;;6282550;22;20019;-89
2022/03/16 06:36:58;;;;;;;29.92;16.02;;;6.30;99.90;;;;;;6257663;22;20023;-91
2022/03/16 06:39:25;;;;;;;25.40;13.27;;;6.30;99.90;;;;;;6310227;22;20102;-90
2022/03/16 06:41:52;;;;;;;33.30;16.25;;;6.20;99.90;;;;;;6282556;22;20094;-90
2022/03/16 06:44:18;;;;;;;31.17;13.93;;;6.20;99.90;;;;;;6283207;22;20022;-90
2022/03/16 06:46:47;;;;;;;38.83;18.25;;;6.30;99.90;;;;;;6282911;22;20122;-92
2022/03/16 06:49:15;;;;;;;27.05;13.88;;;6.30;99.90;;;;;;6258038;22;20015;-90
2022/03/16 06:51:42;;;;;;;42.55;18.92;;;6.20;99.90;;;;;;6282840;22;20042;-91
2022/03/16 06:54:09;;;;;;;28.38;14.15;;;6.30;99.90;;;;;;6283448;22;20007;-91
2022/03/16 06:56:36;;;;;;;39.42;18.58;;;6.30;99.90;;;;;;6257723;22;20472;-91
2022/03/16 06:59:03;;;;;;;28.75;15.25;;;6.30;99.90;;;;;;6257345;22;20081;-91
2022/03/16 07:01:30;;;;;;;34.50;17.80;;;6.20;99.90;;;;;;6256883;22;20047;-90
2022/03/16 07:03:57;;;;;;;39.63;17.90;;;6.20;99.90;;;;;;6257011;22;20636;-91
2022/03/16 07:06:24;;;;;;;36.40;18.08;;;6.30;99.90;;;;;;6282385;22;20100;-90
2022/03/16 07:08:51;;;;;;;29.50;17.13;;;6.30;99.90;;;;;;6281736;22;20469;-90
2022/03/16 07:11:19;;;;;;;30.83;15.65;;;6.30;99.90;;;;;;6282570;22;20023;-90
2022/03/16 07:14:30;;;;;;;33.28;17.25;;;6.30;99.90;;;;;;6309244;22;20346;-91
2022/03/16 07:16:34;;;;;;;32.90;17.25;;;6.30;99.90;;;;;;6282121;22;20099;-90
2022/03/16 07:19:01;;;;;;;35.60;17.25;;;6.40;99.90;;;;;;6310500;22;20023;-91
2022/03/16 07:21:28;;;;;;;30.50;16.50;;;6.40;99.90;;;;;;6231382;22;20019;-91
2022/03/16 07:23:55;;;;;;;37.92;19.50;;;6.40;99.90;;;;;;6282594;22;20045;-90
2022/03/16 07:26:22;;;;;;;41.75;20.88;;;6.50;99.90;;;;;;6281858;22;20105;-91
2022/03/16 07:28:50;;;;;;;41.13;20.02;;;6.50;99.90;;;;;;6282030;22;20025;-92
2022/03/16 07:31:17;;;;;;;40.17;20.67;;;6.40;99.90;;;;;;6281841;22;20019;-90
2022/03/16 07:33:44;;;;;;;46.20;22.42;;;6.40;99.90;;;;;;6281474;22;20039;-91
2022/03/16 07:36:11;;;;;;;32.97;17.50;;;6.50;99.90;;;;;;6256347;22;20350;-90
2022/03/16 07:38:38;;;;;;;35.20;18.67;;;6.50;99.90;;;;;;6257799;22;20019;-90
2022/03/16 07:41:05;;;;;;;41.90;19.90;;;6.50;99.90;;;;;;6283923;22;20019;-91
2022/03/16 07:43:32;;;;;;;49.60;24.38;;;6.60;99.90;;;;;;6281956;22;20022;-90
2022/03/16 07:46:00;;;;;;;42.50;21.05;;;6.70;99.90;;;;;;6256640;22;20019;-91
2022/03/16 07:48:28;;;;;;;58.72;26.20;;;6.70;99.90;;;;;;6282501;22;20019;-90
2022/03/16 07:50:55;;;;;;;50.03;23.95;;;6.80;99.90;;;;;;6281836;22;20058;-91
2022/03/16 07:53:22;;;;;;;47.50;22.77;;;6.80;99.90;;;;;;6281049;22;20015;-90
2022/03/16 07:55:51;;;;;;;51.92;24.38;;;6.80;99.90;;;;;;6282063;22;20039;-90
2022/03/16 07:58:18;;;;;;;50.13;23.95;;;6.90;99.90;;;;;;6281876;22;20029;-90
2022/03/16 08:00:45;;;;;;;52.83;25.20;;;6.80;99.90;;;;;;6256243;22;20011;-91
2022/03/16 08:03:13;;;;;;;39.88;21.48;;;7.00;99.90;;;;;;6255933;22;20023;-91
2022/03/16 08:05:40;;;;;;;54.97;27.48;;;6.90;99.90;;;;;;6308799;22;20486;-91
2022/03/16 08:08:08;;;;;;;49.90;24.70;;;7.00;99.90;;;;;;6281286;22;20023;-91
2022/03/16 08:10:35;;;;;;;55.60;26.08;;;7.10;99.90;;;;;;6256152;22;20025;-90
2022/03/16 08:13:01;;;;;;;51.88;27.38;;;7.10;99.90;;;;;;6281588;22;20071;-90
2022/03/16 08:15:29;;;;;;;45.25;23.17;;;7.20;99.90;;;;;;6255974;22;20015;-91
2022/03/16 08:17:57;;;;;;;46.63;22.45;;;7.20;99.90;;;;;;6308766;22;20020;-91
2022/03/16 08:20:24;;;;;;;57.03;24.80;;;7.20;99.90;;;;;;6282079;22;20016;-91
2022/03/16 08:22:56;;;;;;;61.75;28.92;;;7.30;99.90;;;;;;6281005;22;20065;-91
2022/03/16 08:25:43;;;;;;;49.63;24.35;;;7.50;99.90;;;;;;6281979;22;20315;-91
2022/03/16 08:28:10;;;;;;;59.47;27.65;;;7.50;99.90;;;;;;6308798;22;20016;-91
2022/03/16 08:30:37;;;;;;;49.10;24.40;;;7.60;99.90;;;;;;6281834;22;20086;-91
2022/03/16 08:33:04;;;;;;;46.72;22.98;;;7.60;99.90;;;;;;6280996;22;20333;-91
2022/03/16 08:35:31;;;;;;;56.83;28.08;;;7.60;99.90;;;;;;6256092;22;20023;-91
2022/03/16 08:37:58;;;;;;;58.90;28.30;;;7.90;99.90;;;;;;6282162;22;20350;-90
2022/03/16 08:40:25;;;;;;;56.10;25.30;;;7.80;99.90;;;;;;6281453;22;20065;-91
2022/03/16 08:42:52;;;;;;;62.13;30.58;;;7.90;99.90;;;;;;6285643;22;20469;-92
2022/03/16 08:45:19;;;;;;;63.63;28.52;;;8.00;99.90;;;;;;6286879;22;20021;-91
2022/03/16 08:47:46;;;;;;;54.60;26.08;;;7.90;99.90;;;;;;6312748;22;20008;-90
2022/03/16 08:50:13;;;;;;;47.63;23.48;;;7.90;99.90;;;;;;6256473;22;20098;-90
2022/03/16 08:52:40;;;;;;;56.88;25.75;;;7.90;99.90;;;;;;6280760;22;20012;-92
2022/03/16 08:55:07;;;;;;;60.75;29.05;;;7.90;99.90;;;;;;6308736;22;20449;-90
2022/03/16 08:57:36;;;;;;;64.70;30.48;;;8.10;99.90;;;;;;6282136;22;20069;-91
2022/03/16 09:00:04;;;;;;;56.35;29.83;;;8.30;99.90;;;;;;6281321;22;20023;-91
2022/03/16 09:02:31;;;;;;;56.05;28.33;;;8.20;99.90;;;;;;6256111;22;20069;-92
2022/03/16 09:04:58;;;;;;;55.75;28.30;;;8.40;99.90;;;;;;6256023;22;20320;-91
2022/03/16 09:07:25;;;;;;;57.67;26.95;;;8.40;99.90;;;;;;6231047;22;20019;-90
2022/03/16 09:09:52;;;;;;;62.97;31.02;;;8.40;99.90;;;;;;6281323;22;20015;-90
2022/03/16 09:12:20;;;;;;;51.33;24.70;;;8.30;99.90;;;;;;6281652;22;20042;-91
2022/03/16 09:14:46;;;;;;;55.20;26.08;;;8.20;99.90;;;;;;6281074;22;20046;-91
2022/03/16 09:17:14;;;;;;;50.42;24.70;;;8.20;99.90;;;;;;6255763;22;20345;-91
2022/03/16 09:19:44;;;;;;;46.22;22.73;;;8.20;99.90;;;;;;6281664;22;20017;-92
2022/03/16 09:22:11;;;;;;;48.92;25.17;;;8.20;99.90;;;;;;6256266;22;20395;-92
2022/03/16 09:24:40;;;;;;;53.17;25.02;;;8.30;99.90;;;;;;6281659;22;20029;-91
2022/03/16 09:27:07;;;;;;;48.08;24.50;;;8.20;99.90;;;;;;6308352;22;20023;-92
2022/03/16 09:29:35;;;;;;;41.55;20.85;;;8.40;99.90;;;;;;6281916;22;20019;-91
2022/03/16 09:32:07;;;;;;;40.60;21.27;;;8.40;99.90;;;;;;6280749;22;20058;-92
2022/03/16 09:34:35;;;;;;;41.85;20.27;;;8.40;99.90;;;;;;6256317;22;20078;-91
2022/03/16 09:37:03;;;;;;;47.78;20.67;;;8.40;99.90;;;;;;6281715;22;20027;-90
2022/03/16 09:39:31;;;;;;;42.50;21.48;;;8.40;99.90;;;;;;6281104;22;20393;-91
2022/03/16 09:41:59;;;;;;;43.88;23.17;;;8.40;99.90;;;;;;6281802;22;20439;-91
2022/03/16 09:44:30;;;;;;;38.63;19.17;;;8.50;99.90;;;;;;6280142;22;20074;-92
2022/03/16 09:46:58;;;;;;;37.95;20.50;;;8.40;99.90;;;;;;6255961;22;20027;-91
2022/03/16 09:49:28;;;;;;;39.90;19.92;;;8.60;99.90;;;;;;6281247;22;20327;-90
2022/03/16 09:51:57;;;;;;;35.10;18.70;;;8.70;99.90;;;;;;6308571;22;20049;-92
2022/03/16 09:54:25;;;;;;;42.53;21.92;;;8.60;99.90;;;;;;6281585;22;20015;-90
2022/03/16 09:56:54;;;;;;;39.70;20.33;;;8.70;99.90;;;;;;6256078;22;20038;-91
2022/03/16 09:59:22;;;;;;;36.03;19.83;;;8.80;99.90;;;;;;6281967;22;20050;-91
2022/03/16 10:02:04;;;;;;;40.17;21.00;;;8.80;99.90;;;;;;6255383;22;20054;-90
2022/03/16 10:04:35;;;;;;;37.05;19.80;;;8.90;99.90;;;;;;6280802;22;20023;-91
2022/03/16 10:07:04;;;;;;;39.78;20.23;;;9.20;99.90;;;;;;6255374;22;20382;-91
2022/03/16 10:15:17;;;;;;;43.28;21.45;;;9.30;99.90;;;;;;6280819;22;20124;-91
2022/03/16 10:18:02;;;;;;;41.35;20.45;;;9.30;99.90;;;;;;6280770;22;20019;-92
2022/03/16 10:20:36;;;;;;;39.03;20.90;;;9.30;99.90;;;;;;6255786;22;20015;-91
2022/03/16 10:23:13;;;;;;;41.08;20.95;;;9.40;99.90;;;;;;6255031;22;20025;-91
2022/03/16 10:25:52;;;;;;;39.60;20.45;;;9.40;99.90;;;;;;6256529;22;20025;-91
2022/03/16 10:28:22;;;;;;;35.42;20.48;;;9.60;99.90;;;;;;6281724;22;20015;-90
2022/03/16 10:31:02;;;;;;;34.13;19.80;;;9.50;99.90;;;;;;6280417;22;20102;-91
2022/03/16 10:33:34;;;;;;;44.00;19.20;;;9.40;99.90;;;;;;6281373;22;20042;-90
2022/03/16 10:36:06;;;;;;;34.70;18.67;;;9.60;99.90;;;;;;6255644;22;20011;-91
2022/03/16 10:38:49;;;;;;;37.08;18.35;;;9.90;99.90;;;;;;6281421;22;20024;-92
2022/03/16 10:47:01;;;;;;;35.75;17.33;;;10.20;99.90;;;;;;6308599;22;19915;-91
2022/03/16 10:49:30;;;;;;;33.47;18.17;;;10.40;99.90;;;;;;6280907;22;20031;-93
2022/03/16 10:52:05;;;;;;;34.40;17.15;;;10.50;99.90;;;;;;6206110;22;20394;-92
2022/03/16 10:54:33;;;;;;;33.22;17.88;;;10.60;99.90;;;;;;6281374;22;20338;-91
2022/03/16 10:57:03;;;;;;;27.38;17.02;;;10.60;99.90;;;;;;6257221;22;20403;-91
2022/03/16 10:59:33;;;;;;;26.73;16.83;;;10.40;99.90;;;;;;6258962;22;20025;-92
2022/03/16 11:02:05;;;;;;;29.90;16.42;;;10.40;99.90;;;;;;6258583;22;20110;-91
2022/03/16 11:04:34;;;;;;;35.17;16.05;;;10.40;99.90;;;;;;6283068;22;20023;-91
2022/03/16 11:07:03;;;;;;;32.95;17.45;;;10.50;99.90;;;;;;6256623;22;20023;-91
2022/03/16 11:09:32;;;;;;;32.63;17.15;;;10.50;99.90;;;;;;6282301;22;20098;-93
2022/03/16 11:14:48;;;;;;;28.58;16.00;;;10.60;99.90;;;;;;6282719;22;20065;-91
2022/03/16 11:17:16;;;;;;;29.48;16.65;;;10.50;99.90;;;;;;6257916;22;20024;-92
2022/03/16 11:19:46;;;;;;;25.88;15.30;;;10.90;99.90;;;;;;6257397;22;20019;-91
2022/03/16 11:22:27;;;;;;;26.17;15.98;;;11.20;99.90;;;;;;6281816;22;20425;-91
2022/03/16 11:25:03;;;;;;;24.08;15.25;;;11.10;99.90;;;;;;6282043;22;20023;-91
2022/03/16 11:27:50;;;;;;;24.55;15.02;;;11.30;99.90;;;;;;6282177;22;20020;-93
2022/03/16 11:30:27;;;;;;;22.60;12.45;;;11.10;99.90;;;;;;6282667;22;20069;-92
2022/03/16 11:33:21;;;;;;;25.77;14.52;;;11.20;99.90;;;;;;6256720;22;20027;-91
2022/03/16 11:35:52;;;;;;;25.15;13.73;;;11.40;99.90;;;;;;6254683;22;20016;-92
2022/03/16 11:38:21;;;;;;;27.13;14.23;;;11.50;99.90;;;;;;6282979;22;20105;-91
2022/03/16 11:40:53;;;;;;;23.50;13.77;;;11.70;99.90;;;;;;6257212;22;20414;-92
2022/03/16 11:43:25;;;;;;;19.35;11.80;;;12.00;99.90;;;;;;6310135;22;20046;-92
2022/03/16 11:45:57;;;;;;;20.05;12.30;;;12.00;99.90;;;;;;6285282;22;20030;-92
2022/03/16 11:48:37;;;;;;;19.87;11.17;;;11.90;99.90;;;;;;6282305;22;20019;-91
2022/03/16 11:51:11;;;;;;;17.30;11.00;;;11.90;99.90;;;;;;6282099;22;20030;-91
2022/03/16 11:53:48;;;;;;;22.42;12.38;;;11.80;99.90;;;;;;6256245;22;20441;-91
2022/03/16 11:56:40;;;;;;;21.33;11.82;;;11.70;99.90;;;;;;6256708;22;20015;-92
2022/03/16 11:59:17;;;;;;;23.25;10.98;;;11.80;99.90;;;;;;6257520;22;20370;-92
2022/03/16 12:01:52;;;;;;;16.67;10.18;;;11.80;99.90;;;;;;6282066;22;20015;-92
2022/03/16 12:04:35;;;;;;;16.00;10.45;;;11.90;99.90;;;;;;6281716;22;20102;-92
2022/03/16 12:07:17;;;;;;;16.30;10.23;;;12.00;99.90;;;;;;6309415;22;20023;-93
2022/03/16 12:09:52;;;;;;;16.30;10.07;;;12.00;99.90;;;;;;6282407;22;20426;-92
2022/03/16 12:15:11;;;;;;;13.90;9.68;;;12.00;99.90;;;;;;6309066;22;20438;-91
2022/03/16 12:17:56;;;;;;;19.00;10.23;;;11.90;99.90;;;;;;6308727;22;20046;-93
2022/03/16 12:20:34;;;;;;;16.63;8.68;;;11.80;99.90;;;;;;6310242;22;20019;-91
2022/03/16 12:23:05;;;;;;;16.17;9.65;;;11.80;99.90;;;;;;6281830;22;20089;-93
2022/03/16 12:25:34;;;;;;;16.63;9.10;;;11.80;99.90;;;;;;6283003;22;20015;-91
2022/03/16 12:31:00;;;;;;;17.30;8.30;;;11.90;99.90;;;;;;6309323;22;20015;-91
2022/03/16 12:33:31;;;;;;;13.40;8.45;;;11.80;99.90;;;;;;6282371;22;20015;-93
2022/03/16 12:36:04;;;;;;;14.95;8.48;;;11.90;99.90;;;;;;6282464;22;20012;-92
2022/03/16 12:38:33;;;;;;;14.02;8.93;;;11.90;99.90;;;;;;6281781;22;20050;-93
2022/03/16 12:43:49;;;;;;;14.57;8.80;;;11.90;99.90;;;;;;6256322;22;20343;-92
2022/03/16 12:46:23;;;;;;;13.88;8.25;;;11.90;99.90;;;;;;6283188;22;20015;-92
2022/03/16 12:49:02;;;;;;;14.68;9.10;;;11.90;99.90;;;;;;6282201;22;20442;-91
2022/03/16 12:51:45;;;;;;;14.60;8.88;;;11.90;99.90;;;;;;6281810;22;20019;-91
2022/03/16 12:54:13;;;;;;;13.85;8.40;;;12.00;99.90;;;;;;6281807;22;20494;-92
2022/03/16 12:56:45;;;;;;;13.23;8.88;;;12.00;99.90;;;;;;6256333;22;20534;-93
2022/03/16 12:59:12;;;;;;;16.45;8.82;;;12.10;99.90;;;;;;6282379;22;20015;-92
2022/03/16 13:01:39;;;;;;;13.45;8.25;;;12.20;99.90;;;;;;6307332;22;20015;-93
2022/03/16 13:04:08;;;;;;;12.18;8.25;;;12.20;99.90;;;;;;6307615;22;20407;-92
2022/03/16 13:06:35;;;;;;;16.20;8.65;;;12.20;99.90;;;;;;6281395;22;20063;-91
2022/03/16 13:09:08;;;;;;;13.98;8.45;;;12.20;99.90;;;;;;6281227;22;20019;-92